Dallas, Texas
Traffic Map
Current Weather Conditions
Dallas, Texas
Broken Clouds
Broken Clouds
20°
Feels Like: 20°
Wind Chill: 20° Ceiling: 25000
Heat Index: 20° Visibility: 10mi
Dew Point: 11° Wind: 7mph
Humidity: 56% Direction: 130° (SE)
Pressure: 30.09in Gusts: 0mph
Raw Report DataKDAL 200253Z 13006KT 10SM BKN250 20/11 A3009 RMK AO2 SLP183 T02000111 53001
Traffic Incident Summary
Active as of:
Severity:
Category:
InformationThere was an issue retrieving the traffic information for this location. Please try a different location or try again shortly.
Advertisements
At Last! Intellicast now available for iPhone and Android